sensor_id;sensor_type;location;lat;lon;timestamp;pressure;altitude;pressure_sealevel;temperature;humidity
30614;BME280;17381;51.690;5.270;2023-05-14T00:10:00;101947.06;;;16.27;61.77
30614;BME280;17381;51.690;5.270;2023-05-14T00:12:29;101937.56;;;16.20;61.91
30614;BME280;17381;51.690;5.270;2023-05-14T00:15:08;101889.84;;;15.90;61.95
30614;BME280;17381;51.690;5.270;2023-05-14T00:17:41;101929.00;;;16.10;62.15
30614;BME280;17381;51.690;5.270;2023-05-14T00:20:11;101939.72;;;16.07;62.09
30614;BME280;17381;51.690;5.270;2023-05-14T00:22:52;101928.38;;;16.02;62.17
30614;BME280;17381;51.690;5.270;2023-05-14T00:25:35;101936.34;;;16.02;62.09
30614;BME280;17381;51.690;5.270;2023-05-14T00:28:15;101932.13;;;15.95;61.89
30614;BME280;17381;51.690;5.270;2023-05-14T00:31:16;101936.72;;;15.89;62.31
30614;BME280;17381;51.690;5.270;2023-05-14T00:33:45;101933.31;;;15.84;62.28
30614;BME280;17381;51.690;5.270;2023-05-14T00:36:25;101930.66;;;15.84;62.40
30614;BME280;17381;51.690;5.270;2023-05-14T00:38:55;101921.34;;;15.71;62.69
30614;BME280;17381;51.690;5.270;2023-05-14T00:41:53;101918.59;;;15.74;62.44
30614;BME280;17381;51.690;5.270;2023-05-14T00:44:47;101926.66;;;15.71;62.51
30614;BME280;17381;51.690;5.270;2023-05-14T00:47:34;101929.56;;;15.62;62.83
30614;BME280;17381;51.690;5.270;2023-05-14T00:50:17;101920.81;;;15.58;62.83
30614;BME280;17381;51.690;5.270;2023-05-14T00:52:53;101920.09;;;15.53;62.45
30614;BME280;17381;51.690;5.270;2023-05-14T00:55:22;101920.22;;;15.48;62.98
30614;BME280;17381;51.690;5.270;2023-05-14T00:58:04;101918.66;;;15.41;63.11
30614;BME280;17381;51.690;5.270;2023-05-14T01:00:41;101903.22;;;15.26;63.29
30614;BME280;17381;51.690;5.270;2023-05-14T01:03:16;101905.88;;;15.24;62.93
30614;BME280;17381;51.690;5.270;2023-05-14T01:12:16;101915.56;;;15.25;63.34
30614;BME280;17381;51.690;5.270;2023-05-14T01:15:24;101908.00;;;15.12;63.33
30614;BME280;17381;51.690;5.270;2023-05-14T01:18:17;101913.38;;;15.10;63.78
30614;BME280;17381;51.690;5.270;2023-05-14T01:21:38;101913.41;;;15.09;63.70
30614;BME280;17381;51.690;5.270;2023-05-14T01:31:13;101919.94;;;14.95;64.47
30614;BME280;17381;51.690;5.270;2023-05-14T01:34:03;101904.88;;;14.97;64.28
30614;BME280;17381;51.690;5.270;2023-05-14T01:36:35;101898.75;;;14.95;64.46
30614;BME280;17381;51.690;5.270;2023-05-14T01:39:07;101895.28;;;14.93;64.58
30614;BME280;17381;51.690;5.270;2023-05-14T01:41:41;101901.53;;;14.91;64.54
30614;BME280;17381;51.690;5.270;2023-05-14T01:44:21;101865.09;;;14.66;64.56
30614;BME280;17381;51.690;5.270;2023-05-14T01:47:11;101903.41;;;14.87;64.70
30614;BME280;17381;51.690;5.270;2023-05-14T01:49:49;101907.00;;;14.85;64.55
30614;BME280;17381;51.690;5.270;2023-05-14T01:52:22;101899.38;;;14.71;64.59
30614;BME280;17381;51.690;5.270;2023-05-14T01:55:02;101899.16;;;14.80;64.94
30614;BME280;17381;51.690;5.270;2023-05-14T01:57:40;101899.94;;;14.83;64.74
30614;BME280;17381;51.690;5.270;2023-05-14T02:00:23;101896.47;;;14.81;64.79
30614;BME280;17381;51.690;5.270;2023-05-14T02:03:12;101893.88;;;14.80;65.15
30614;BME280;17381;51.690;5.270;2023-05-14T02:06:08;101893.88;;;14.80;64.82
30614;BME280;17381;51.690;5.270;2023-05-14T02:12:31;101893.16;;;14.73;65.38
30614;BME280;17381;51.690;5.270;2023-05-14T02:15:01;101890.47;;;14.75;65.67
30614;BME280;17381;51.690;5.270;2023-05-14T02:17:26;101890.38;;;14.78;65.50
30614;BME280;17381;51.690;5.270;2023-05-14T02:19:59;101889.56;;;14.76;65.32
30614;BME280;17381;51.690;5.270;2023-05-14T02:22:39;101894.75;;;14.79;65.61
30614;BME280;17381;51.690;5.270;2023-05-14T02:25:42;101894.81;;;14.77;65.50
30614;BME280;17381;51.690;5.270;2023-05-14T02:28:39;101887.84;;;14.73;65.79
30614;BME280;17381;51.690;5.270;2023-05-14T02:31:18;101896.75;;;14.71;65.93
30614;BME280;17381;51.690;5.270;2023-05-14T02:33:53;101897.66;;;14.70;65.81
30614;BME280;17381;51.690;5.270;2023-05-14T02:36:41;101799.44;;;14.13;65.56
30614;BME280;17381;51.690;5.270;2023-05-14T02:39:12;101851.63;;;14.41;65.91
30614;BME280;17381;51.690;5.270;2023-05-14T02:41:40;101884.63;;;14.62;66.14
30614;BME280;17381;51.690;5.270;2023-05-14T02:44:23;101883.69;;;14.65;65.96
30614;BME280;17381;51.690;5.270;2023-05-14T02:47:15;101880.28;;;14.59;66.19
30614;BME280;17381;51.690;5.270;2023-05-14T02:50:08;101841.34;;;14.29;66.27
30614;BME280;17381;51.690;5.270;2023-05-14T02:53:00;101885.75;;;14.50;66.25
30614;BME280;17381;51.690;5.270;2023-05-14T02:55:58;101822.38;;;14.11;66.17
30614;BME280;17381;51.690;5.270;2023-05-14T02:58:36;101880.72;;;14.41;66.28
30614;BME280;17381;51.690;5.270;2023-05-14T03:01:23;101874.63;;;14.37;66.44
30614;BME280;17381;51.690;5.270;2023-05-14T03:04:02;101815.63;;;14.00;66.42
30614;BME280;17381;51.690;5.270;2023-05-14T03:06:55;101876.56;;;14.31;66.65
30614;BME280;17381;51.690;5.270;2023-05-14T03:09:30;101873.94;;;14.29;66.75
30614;BME280;17381;51.690;5.270;2023-05-14T03:12:16;101879.25;;;14.29;66.89
30614;BME280;17381;51.690;5.270;2023-05-14T03:15:24;101862.72;;;14.19;66.71
30614;BME280;17381;51.690;5.270;2023-05-14T03:18:05;101865.38;;;14.19;66.76
30614;BME280;17381;51.690;5.270;2023-05-14T03:20:47;101856.00;;;14.06;66.83
30614;BME280;17381;51.690;5.270;2023-05-14T03:23:16;101863.09;;;14.04;67.06
30614;BME280;17381;51.690;5.270;2023-05-14T03:25:45;101878.94;;;14.06;67.34
30614;BME280;17381;51.690;5.270;2023-05-14T03:28:23;101865.81;;;14.01;67.18
30614;BME280;17381;51.690;5.270;2023-05-14T03:30:57;101852.94;;;13.87;67.29
30614;BME280;17381;51.690;5.270;2023-05-14T03:36:48;101802.63;;;13.53;67.71
30614;BME280;17381;51.690;5.270;2023-05-14T03:39:29;101859.19;;;13.83;67.58
30614;BME280;17381;51.690;5.270;2023-05-14T03:41:59;101859.25;;;13.80;67.91
30614;BME280;17381;51.690;5.270;2023-05-14T03:44:26;101860.13;;;13.81;68.01
30614;BME280;17381;51.690;5.270;2023-05-14T03:47:27;101861.91;;;13.80;67.62
30614;BME280;17381;51.690;5.270;2023-05-14T03:50:13;101851.50;;;13.72;67.57
30614;BME280;17381;51.690;5.270;2023-05-14T03:52:52;101848.94;;;13.69;67.92
30614;BME280;17381;51.690;5.270;2023-05-14T03:55:45;101858.53;;;13.73;68.04
30614;BME280;17381;51.690;5.270;2023-05-14T03:59:05;101855.06;;;13.70;68.18
30614;BME280;17381;51.690;5.270;2023-05-14T04:01:59;101841.28;;;13.57;68.16
30614;BME280;17381;51.690;5.270;2023-05-14T04:04:38;101854.47;;;13.57;68.29
30614;BME280;17381;51.690;5.270;2023-05-14T04:07:15;101850.06;;;13.58;68.62
30614;BME280;17381;51.690;5.270;2023-05-14T04:10:05;101777.06;;;13.13;68.51
30614;BME280;17381;51.690;5.270;2023-05-14T04:12:37;101856.25;;;13.58;68.81
30614;BME280;17381;51.690;5.270;2023-05-14T04:15:30;101851.00;;;13.55;68.77
30614;BME280;17381;51.690;5.270;2023-05-14T04:18:10;101853.72;;;13.52;68.79
30614;BME280;17381;51.690;5.270;2023-05-14T04:21:22;101846.72;;;13.49;69.01
30614;BME280;17381;51.690;5.270;2023-05-14T04:23:55;101838.06;;;13.43;69.16
30614;BME280;17381;51.690;5.270;2023-05-14T04:26:29;101850.19;;;13.51;68.96
30614;BME280;17381;51.690;5.270;2023-05-14T04:29:07;101847.59;;;13.50;69.01
30614;BME280;17381;51.690;5.270;2023-05-14T04:31:38;101870.56;;;13.46;68.91
30614;BME280;17381;51.690;5.270;2023-05-14T04:34:11;101810.38;;;13.19;69.11
30614;BME280;17381;51.690;5.270;2023-05-14T04:36:45;101861.78;;;13.46;69.19
30614;BME280;17381;51.690;5.270;2023-05-14T04:39:17;101817.41;;;13.20;69.25
30614;BME280;17381;51.690;5.270;2023-05-14T04:41:49;101849.59;;;13.39;69.41
30614;BME280;17381;51.690;5.270;2023-05-14T04:44:22;101841.72;;;13.37;69.53
30614;BME280;17381;51.690;5.270;2023-05-14T04:47:00;101854.81;;;13.42;69.35
30614;BME280;17381;51.690;5.270;2023-05-14T04:49:32;101859.22;;;13.43;69.54
30614;BME280;17381;51.690;5.270;2023-05-14T04:52:08;101849.56;;;13.40;69.55
30614;BME280;17381;51.690;5.270;2023-05-14T04:54:41;101835.75;;;13.27;69.58
30614;BME280;17381;51.690;5.270;2023-05-14T04:57:31;101853.16;;;13.36;69.56
30614;BME280;17381;51.690;5.270;2023-05-14T05:00:01;101861.09;;;13.36;69.65
30614;BME280;17381;51.690;5.270;2023-05-14T05:02:36;101848.06;;;13.28;69.72
30614;BME280;17381;51.690;5.270;2023-05-14T05:05:04;101854.25;;;13.27;69.86
30614;BME280;17381;51.690;5.270;2023-05-14T05:08:24;101850.72;;;13.25;69.94
30614;BME280;17381;51.690;5.270;2023-05-14T05:11:02;101851.75;;;13.18;70.10
30614;BME280;17381;51.690;5.270;2023-05-14T05:13:50;101852.59;;;13.19;70.30
30614;BME280;17381;51.690;5.270;2023-05-14T05:16:22;101812.63;;;12.95;70.32
30614;BME280;17381;51.690;5.270;2023-05-14T05:18:54;101857.88;;;13.20;70.20
30614;BME280;17381;51.690;5.270;2023-05-14T05:21:36;101860.50;;;13.22;70.64
30614;BME280;17381;51.690;5.270;2023-05-14T05:24:11;101863.06;;;13.25;70.63
30614;BME280;17381;51.690;5.270;2023-05-14T05:26:43;101860.38;;;13.28;70.68
30614;BME280;17381;51.690;5.270;2023-05-14T05:29:25;101863.75;;;13.36;70.46
30614;BME280;17381;51.690;5.270;2023-05-14T05:32:11;101871.63;;;13.38;70.62
30614;BME280;17381;51.690;5.270;2023-05-14T05:34:50;101874.13;;;13.44;70.72
30614;BME280;17381;51.690;5.270;2023-05-14T05:37:43;101873.22;;;13.46;70.78
30614;BME280;17381;51.690;5.270;2023-05-14T05:40:20;101849.41;;;13.48;70.59
30614;BME280;17381;51.690;5.270;2023-05-14T05:42:50;101860.69;;;13.55;70.80
30614;BME280;17381;51.690;5.270;2023-05-14T05:45:16;101863.16;;;13.64;70.58
30614;BME280;17381;51.690;5.270;2023-05-14T05:47:54;101869.22;;;13.67;70.80
30614;BME280;17381;51.690;5.270;2023-05-14T05:50:44;101866.41;;;13.77;70.51
30614;BME280;17381;51.690;5.270;2023-05-14T05:53:43;101861.88;;;13.82;70.50
30614;BME280;17381;51.690;5.270;2023-05-14T05:56:14;101865.31;;;13.85;70.29
30614;BME280;17381;51.690;5.270;2023-05-14T05:59:01;101865.34;;;13.84;70.05
30614;BME280;17381;51.690;5.270;2023-05-14T06:01:58;101820.06;;;13.60;70.07
30614;BME280;17381;51.690;5.270;2023-05-14T06:04:49;101890.63;;;13.95;69.80
30614;BME280;17381;51.690;5.270;2023-05-14T06:07:35;101874.94;;;13.88;70.05
30614;BME280;17381;51.690;5.270;2023-05-14T06:10:24;101881.81;;;13.95;69.69
30614;BME280;17381;51.690;5.270;2023-05-14T06:13:05;101890.66;;;13.94;69.99
30614;BME280;17381;51.690;5.270;2023-05-14T06:15:39;101885.38;;;13.94;69.80
30614;BME280;17381;51.690;5.270;2023-05-14T06:18:24;101867.91;;;13.87;69.81
30614;BME280;17381;51.690;5.270;2023-05-14T06:21:01;101890.63;;;13.95;69.70
30614;BME280;17381;51.690;5.270;2023-05-14T06:23:41;101889.66;;;14.00;70.21
30614;BME280;17381;51.690;5.270;2023-05-14T06:26:20;101895.63;;;14.08;69.97
30614;BME280;17381;51.690;5.270;2023-05-14T06:29:11;101885.13;;;14.05;70.05
30614;BME280;17381;51.690;5.270;2023-05-14T06:31:48;101873.72;;;14.03;70.03
30614;BME280;17381;51.690;5.270;2023-05-14T06:34:16;101900.75;;;14.15;70.28
30614;BME280;17381;51.690;5.270;2023-05-14T06:36:55;101880.53;;;14.13;70.03
30614;BME280;17381;51.690;5.270;2023-05-14T06:39:33;101897.66;;;14.32;70.21
30614;BME280;17381;51.690;5.270;2023-05-14T06:42:22;101888.84;;;14.33;69.87
30614;BME280;17381;51.690;5.270;2023-05-14T06:45:08;101893.94;;;14.41;69.61
30614;BME280;17381;51.690;5.270;2023-05-14T06:47:43;101893.03;;;14.42;69.71
30614;BME280;17381;51.690;5.270;2023-05-14T06:50:12;101873.53;;;14.46;69.59
30614;BME280;17381;51.690;5.270;2023-05-14T06:52:53;101887.31;;;14.60;69.72
30614;BME280;17381;51.690;5.270;2023-05-14T06:55:38;101869.66;;;14.61;69.45
30614;BME280;17381;51.690;5.270;2023-05-14T07:01:00;101884.16;;;14.79;68.63
30614;BME280;17381;51.690;5.270;2023-05-14T07:03:27;101884.88;;;14.86;68.91
30614;BME280;17381;51.690;5.270;2023-05-14T07:05:53;101870.69;;;14.88;68.71
30614;BME280;17381;51.690;5.270;2023-05-14T07:08:27;101887.25;;;14.96;69.06
30614;BME280;17381;51.690;5.270;2023-05-14T07:10:56;101880.00;;;15.03;68.83
30614;BME280;17381;51.690;5.270;2023-05-14T07:13:47;101889.47;;;15.12;68.30
30614;BME280;17381;51.690;5.270;2023-05-14T07:16:27;101859.94;;;14.94;68.35
30614;BME280;17381;51.690;5.270;2023-05-14T07:19:07;101897.09;;;15.22;68.55
30614;BME280;17381;51.690;5.270;2023-05-14T07:24:27;101891.28;;;15.41;68.60
30614;BME280;17381;51.690;5.270;2023-05-14T07:27:09;101884.88;;;15.49;68.32
30614;BME280;17381;51.690;5.270;2023-05-14T07:29:59;101894.22;;;15.61;68.10
30614;BME280;17381;51.690;5.270;2023-05-14T07:32:47;101800.25;;;15.14;67.83
30614;BME280;17381;51.690;5.270;2023-05-14T07:35:31;101879.81;;;15.72;68.11
30614;BME280;17381;51.690;5.270;2023-05-14T07:37:57;101870.72;;;15.80;67.86
30614;BME280;17381;51.690;5.270;2023-05-14T07:40:27;101798.25;;;15.52;68.20
30614;BME280;17381;51.690;5.270;2023-05-14T07:43:08;101864.94;;;15.96;68.27
30614;BME280;17381;51.690;5.270;2023-05-14T07:48:29;101867.59;;;15.96;67.82
30614;BME280;17381;51.690;5.270;2023-05-14T07:50:59;101882.47;;;16.00;67.28
30614;BME280;17381;51.690;5.270;2023-05-14T07:53:29;101817.84;;;15.76;67.49
30614;BME280;17381;51.690;5.270;2023-05-14T07:55:56;101865.34;;;16.10;67.60
30614;BME280;17381;51.690;5.270;2023-05-14T07:58:41;101875.78;;;16.16;67.40
30614;BME280;17381;51.690;5.270;2023-05-14T08:01:19;101847.59;;;16.12;67.09
30614;BME280;17381;51.690;5.270;2023-05-14T08:03:52;101853.53;;;16.20;67.38
30614;BME280;17381;51.690;5.270;2023-05-14T08:06:32;101850.69;;;16.26;67.33
30614;BME280;17381;51.690;5.270;2023-05-14T08:09:14;101840.25;;;16.20;66.93
30614;BME280;17381;51.690;5.270;2023-05-14T08:11:58;101855.56;;;16.39;66.71
30614;BME280;17381;51.690;5.270;2023-05-14T08:14:25;101841.44;;;16.38;66.82
30614;BME280;17381;51.690;5.270;2023-05-14T08:16:58;101860.16;;;16.60;66.51
30614;BME280;17381;51.690;5.270;2023-05-14T08:19:35;101868.75;;;16.67;66.03
30614;BME280;17381;51.690;5.270;2023-05-14T08:22:18;101841.66;;;16.57;64.73
30614;BME280;17381;51.690;5.270;2023-05-14T08:25:01;101864.22;;;16.70;64.87
30614;BME280;17381;51.690;5.270;2023-05-14T08:31:34;101869.66;;;16.92;64.82
30614;BME280;17381;51.690;5.270;2023-05-14T08:34:45;101872.03;;;17.00;64.37
30614;BME280;17381;51.690;5.270;2023-05-14T08:45:32;101872.56;;;17.35;64.60
30614;BME280;17381;51.690;5.270;2023-05-14T09:18:39;101833.31;;;18.92;62.27
30614;BME280;17381;51.690;5.270;2023-05-14T09:21:49;101839.16;;;19.01;62.97
30614;BME280;17381;51.690;5.270;2023-05-14T09:28:51;101825.00;;;19.57;62.95
30614;BME280;17381;51.690;5.270;2023-05-14T09:32:15;101820.09;;;19.86;63.25
30614;BME280;17381;51.690;5.270;2023-05-14T09:36:23;101816.66;;;20.18;62.20
30614;BME280;17381;51.690;5.270;2023-05-14T09:39:19;101812.59;;;20.46;61.72
30614;BME280;17381;51.690;5.270;2023-05-14T09:42:35;101807.09;;;20.66;60.37
30614;BME280;17381;51.690;5.270;2023-05-14T09:46:01;101808.72;;;20.86;61.33
30614;BME280;17381;51.690;5.270;2023-05-14T09:58:27;101802.44;;;21.52;56.92
30614;BME280;17381;51.690;5.270;2023-05-14T10:01:54;101805.19;;;21.67;57.57
30614;BME280;17381;51.690;5.270;2023-05-14T10:08:48;101796.47;;;22.09;58.47
30614;BME280;17381;51.690;5.270;2023-05-14T10:20:18;101789.00;;;22.75;56.51
30614;BME280;17381;51.690;5.270;2023-05-14T10:33:29;101772.66;;;23.08;56.24
30614;BME280;17381;51.690;5.270;2023-05-14T11:13:45;101734.75;;;24.85;53.00
30614;BME280;17381;51.690;5.270;2023-05-14T11:20:45;101732.41;;;25.30;51.97
30614;BME280;17381;51.690;5.270;2023-05-14T11:56:20;101686.66;;;27.36;45.60
30614;BME280;17381;51.690;5.270;2023-05-14T11:59:43;101696.97;;;27.42;47.18
30614;BME280;17381;51.690;5.270;2023-05-14T12:07:00;101689.41;;;27.57;43.95
30614;BME280;17381;51.690;5.270;2023-05-14T12:28:21;101674.78;;;27.59;39.92
30614;BME280;17381;51.690;5.270;2023-05-14T12:32:15;101662.53;;;27.55;44.28
30614;BME280;17381;51.690;5.270;2023-05-14T12:35:14;101665.53;;;27.41;42.39
30614;BME280;17381;51.690;5.270;2023-05-14T12:38:28;101666.59;;;27.29;42.45
30614;BME280;17381;51.690;5.270;2023-05-14T12:42:01;101670.03;;;27.19;43.89
30614;BME280;17381;51.690;5.270;2023-05-14T12:52:43;101645.06;;;26.84;41.06
30614;BME280;17381;51.690;5.270;2023-05-14T12:55:56;101647.66;;;26.85;42.99
30614;BME280;17381;51.690;5.270;2023-05-14T13:02:43;101642.16;;;27.08;43.88
30614;BME280;17381;51.690;5.270;2023-05-14T13:06:07;101626.13;;;27.06;42.83
30614;BME280;17381;51.690;5.270;2023-05-14T13:09:13;101639.69;;;27.27;43.54
30614;BME280;17381;51.690;5.270;2023-05-14T13:12:20;101640.06;;;27.23;41.31
30614;BME280;17381;51.690;5.270;2023-05-14T13:15:35;101634.19;;;27.17;43.90
30614;BME280;17381;51.690;5.270;2023-05-14T13:18:58;101632.66;;;27.36;43.43
30614;BME280;17381;51.690;5.270;2023-05-14T13:25:12;101631.78;;;27.68;43.85
30614;BME280;17381;51.690;5.270;2023-05-14T13:31:41;101622.13;;;27.75;42.46
30614;BME280;17381;51.690;5.270;2023-05-14T13:34:53;101623.59;;;27.79;41.52
30614;BME280;17381;51.690;5.270;2023-05-14T13:45:24;101606.06;;;27.31;42.70
30614;BME280;17381;51.690;5.270;2023-05-14T13:49:01;101600.41;;;27.23;42.67
30614;BME280;17381;51.690;5.270;2023-05-14T13:52:48;101591.97;;;27.16;43.13
30614;BME280;17381;51.690;5.270;2023-05-14T13:56:06;101600.72;;;27.41;44.42
30614;BME280;17381;51.690;5.270;2023-05-14T13:59:33;101596.25;;;27.51;41.07
30614;BME280;17381;51.690;5.270;2023-05-14T14:03:10;101592.59;;;27.41;40.11
30614;BME280;17381;51.690;5.270;2023-05-14T14:10:26;101581.47;;;27.02;39.85
30614;BME280;17381;51.690;5.270;2023-05-14T14:14:10;101584.22;;;26.91;41.03
30614;BME280;17381;51.690;5.270;2023-05-14T14:17:24;101583.25;;;26.81;38.45
30614;BME280;17381;51.690;5.270;2023-05-14T14:21:03;101585.16;;;26.58;40.26
30614;BME280;17381;51.690;5.270;2023-05-14T14:24:20;101576.66;;;26.51;41.09
30614;BME280;17381;51.690;5.270;2023-05-14T14:31:19;101580.28;;;26.18;39.91
30614;BME280;17381;51.690;5.270;2023-05-14T14:34:42;101579.28;;;26.07;41.84
30614;BME280;17381;51.690;5.270;2023-05-14T14:41:42;101576.84;;;26.16;39.80
30614;BME280;17381;51.690;5.270;2023-05-14T14:59:48;101556.38;;;25.91;40.30
30614;BME280;17381;51.690;5.270;2023-05-14T15:07:02;101573.72;;;25.75;39.33
30614;BME280;17381;51.690;5.270;2023-05-14T15:14:35;101568.50;;;25.50;40.25
30614;BME280;17381;51.690;5.270;2023-05-14T15:40:24;101551.00;;;24.61;41.92
30614;BME280;17381;51.690;5.270;2023-05-14T15:43:52;101545.94;;;24.56;42.52
30614;BME280;17381;51.690;5.270;2023-05-14T15:47:13;101543.38;;;24.54;42.38
30614;BME280;17381;51.690;5.270;2023-05-14T16:05:44;101537.19;;;24.28;43.78
30614;BME280;17381;51.690;5.270;2023-05-14T16:09:23;101539.53;;;24.33;45.89
30614;BME280;17381;51.690;5.270;2023-05-14T16:16:11;101545.38;;;24.27;48.40
30614;BME280;17381;51.690;5.270;2023-05-14T16:19:20;101531.44;;;23.96;49.15
30614;BME280;17381;51.690;5.270;2023-05-14T16:26:33;101552.59;;;23.62;51.36
30614;BME280;17381;51.690;5.270;2023-05-14T16:34:17;101545.34;;;23.24;51.84
30614;BME280;17381;51.690;5.270;2023-05-14T16:37:36;101549.47;;;23.03;51.91
30614;BME280;17381;51.690;5.270;2023-05-14T16:44:11;101555.09;;;22.71;52.58
30614;BME280;17381;51.690;5.270;2023-05-14T16:47:51;101546.44;;;22.53;52.99
30614;BME280;17381;51.690;5.270;2023-05-14T16:51:14;101559.75;;;22.55;53.13
30614;BME280;17381;51.690;5.270;2023-05-14T16:55:05;101564.28;;;22.40;53.71
30614;BME280;17381;51.690;5.270;2023-05-14T16:58:31;101560.94;;;22.22;54.21
30614;BME280;17381;51.690;5.270;2023-05-14T17:05:50;101574.22;;;21.95;53.88
30614;BME280;17381;51.690;5.270;2023-05-14T17:08:46;101574.97;;;21.83;54.13
30614;BME280;17381;51.690;5.270;2023-05-14T17:12:23;101572.38;;;21.67;54.48
30614;BME280;17381;51.690;5.270;2023-05-14T17:15:28;101576.38;;;21.60;54.30
30614;BME280;17381;51.690;5.270;2023-05-14T17:18:53;101567.22;;;21.33;54.72
30614;BME280;17381;51.690;5.270;2023-05-14T17:25:11;101583.78;;;21.24;55.60
30614;BME280;17381;51.690;5.270;2023-05-14T17:28:04;101585.38;;;21.12;55.87
30614;BME280;17381;51.690;5.270;2023-05-14T17:31:49;101588.16;;;20.95;55.83
30614;BME280;17381;51.690;5.270;2023-05-14T17:42:36;101590.53;;;20.52;56.86
30614;BME280;17381;51.690;5.270;2023-05-14T17:50:26;101608.28;;;20.21;57.25
30614;BME280;17381;51.690;5.270;2023-05-14T17:57:12;101594.19;;;19.85;57.88
30614;BME280;17381;51.690;5.270;2023-05-14T18:00:24;101611.38;;;19.96;57.96
30614;BME280;17381;51.690;5.270;2023-05-14T18:07:56;101604.25;;;19.79;58.29
30614;BME280;17381;51.690;5.270;2023-05-14T18:15:09;101603.13;;;19.66;58.48
30614;BME280;17381;51.690;5.270;2023-05-14T18:32:39;101619.13;;;19.31;59.36
30614;BME280;17381;51.690;5.270;2023-05-14T18:36:09;101616.44;;;19.14;59.18
30614;BME280;17381;51.690;5.270;2023-05-14T18:43:31;101623.75;;;18.91;59.34
30614;BME280;17381;51.690;5.270;2023-05-14T18:47:04;101624.03;;;18.85;59.41
30614;BME280;17381;51.690;5.270;2023-05-14T18:54:18;101619.84;;;18.61;60.02
30614;BME280;17381;51.690;5.270;2023-05-14T18:57:32;101629.28;;;18.49;60.29
30614;BME280;17381;51.690;5.270;2023-05-14T19:01:25;101637.66;;;18.40;60.34
30614;BME280;17381;51.690;5.270;2023-05-14T19:04:46;101636.22;;;18.33;61.12
30614;BME280;17381;51.690;5.270;2023-05-14T19:15:25;101629.25;;;18.09;61.41
30614;BME280;17381;51.690;5.270;2023-05-14T19:18:45;101632.22;;;18.03;61.27
30614;BME280;17381;51.690;5.270;2023-05-14T19:26:13;101612.78;;;17.81;61.43
30614;BME280;17381;51.690;5.270;2023-05-14T19:30:01;101629.94;;;17.74;61.50
30614;BME280;17381;51.690;5.270;2023-05-14T19:33:25;101626.72;;;17.65;62.10
30614;BME280;17381;51.690;5.270;2023-05-14T19:36:24;101632.13;;;17.64;62.07
30614;BME280;17381;51.690;5.270;2023-05-14T19:39:28;101634.16;;;17.57;61.95
30614;BME280;17381;51.690;5.270;2023-05-14T19:46:12;101633.63;;;17.49;62.78
30614;BME280;17381;51.690;5.270;2023-05-14T19:49:08;101635.47;;;17.47;62.72
30614;BME280;17381;51.690;5.270;2023-05-14T20:00:20;101650.59;;;17.25;62.69
30614;BME280;17381;51.690;5.270;2023-05-14T20:03:21;101648.25;;;17.17;63.25
30614;BME280;17381;51.690;5.270;2023-05-14T20:06:25;101638.94;;;17.07;63.19
30614;BME280;17381;51.690;5.270;2023-05-14T20:09:48;101645.53;;;16.96;63.10
30614;BME280;17381;51.690;5.270;2023-05-14T20:12:56;101650.47;;;16.84;63.72
30614;BME280;17381;51.690;5.270;2023-05-14T20:16:03;101633.13;;;16.73;63.72
30614;BME280;17381;51.690;5.270;2023-05-14T20:25:49;101642.56;;;16.57;64.71
30614;BME280;17381;51.690;5.270;2023-05-14T20:32:00;101643.69;;;16.51;64.71
30614;BME280;17381;51.690;5.270;2023-05-14T20:35:36;101646.44;;;16.48;64.79
30614;BME280;17381;51.690;5.270;2023-05-14T20:38:43;101640.44;;;16.43;64.85
30614;BME280;17381;51.690;5.270;2023-05-14T20:41:45;101639.81;;;16.36;65.06
30614;BME280;17381;51.690;5.270;2023-05-14T20:45:07;101642.44;;;16.36;64.83
30614;BME280;17381;51.690;5.270;2023-05-14T20:48:46;101640.91;;;16.31;65.07
30614;BME280;17381;51.690;5.270;2023-05-14T20:51:50;101647.06;;;16.31;65.10
30614;BME280;17381;51.690;5.270;2023-05-14T20:54:53;101641.09;;;16.26;65.27
30614;BME280;17381;51.690;5.270;2023-05-14T20:58:04;101633.41;;;16.19;64.75
30614;BME280;17381;51.690;5.270;2023-05-14T21:01:21;101638.72;;;16.19;65.41
30614;BME280;17381;51.690;5.270;2023-05-14T21:08:03;101619.94;;;16.00;65.41
30614;BME280;17381;51.690;5.270;2023-05-14T21:11:14;101623.34;;;16.03;65.34
30614;BME280;17381;51.690;5.270;2023-05-14T21:15:05;101642.44;;;16.13;65.37
30614;BME280;17381;51.690;5.270;2023-05-14T21:18:19;101624.34;;;16.01;65.38
30614;BME280;17381;51.690;5.270;2023-05-14T21:21:35;101623.41;;;16.02;65.80
30614;BME280;17381;51.690;5.270;2023-05-14T21:28:39;101633.63;;;15.87;65.52
30614;BME280;17381;51.690;5.270;2023-05-14T21:32:07;101615.28;;;15.81;65.79
30614;BME280;17381;51.690;5.270;2023-05-14T21:35:12;101621.41;;;15.83;65.81
30614;BME280;17381;51.690;5.270;2023-05-14T21:38:59;101618.06;;;15.78;66.18
30614;BME280;17381;51.690;5.270;2023-05-14T21:41:52;101628.66;;;15.78;66.17
30614;BME280;17381;51.690;5.270;2023-05-14T21:45:19;101618.16;;;15.75;66.16
30614;BME280;17381;51.690;5.270;2023-05-14T21:55:39;101616.81;;;15.62;65.89
30614;BME280;17381;51.690;5.270;2023-05-14T22:02:29;101617.84;;;15.58;66.25
30614;BME280;17381;51.690;5.270;2023-05-14T22:09:21;101608.06;;;15.33;66.09
30614;BME280;17381;51.690;5.270;2023-05-14T22:19:40;101612.13;;;15.17;66.98
30614;BME280;17381;51.690;5.270;2023-05-14T22:22:48;101581.69;;;15.03;66.69
30614;BME280;17381;51.690;5.270;2023-05-14T22:32:44;101607.94;;;15.10;66.89
30614;BME280;17381;51.690;5.270;2023-05-14T22:36:13;101570.00;;;14.82;66.87
30614;BME280;17381;51.690;5.270;2023-05-14T22:39:51;101594.16;;;15.00;66.84
30614;BME280;17381;51.690;5.270;2023-05-14T22:43:28;101589.91;;;14.94;66.85
30614;BME280;17381;51.690;5.270;2023-05-14T22:52:45;101586.84;;;14.80;66.80
30614;BME280;17381;51.690;5.270;2023-05-14T22:59:30;101580.72;;;14.78;67.78